aviador You're here:

UBBQ Decoded Metar

in
Report Time2018-06-23 13:00:00
UTC Time2018-06-23 13:47:59
Flight Rules vfr VFR
WindCalm
Visibility9999 m
Phenomena:N/A
Clouds:N/A
Expected CloudBase > 6,800 ft AGL from Temp-Dew spread
CeilingNone
Temp31°C
Dew Point14°C (35% RH)
Heat Index30.3°C
QNH1008 hPa
Raw Report
METAR UBBQ 231300Z 00000KT 9999 NSC 31/14 Q1008
R16/CLRD// NOSIG RMK MT OP=

Extra information for UBBQ:More info

Social comments